createdAt,value
2022-07-26T00:00:32.802Z,1007.13
2022-07-26T00:01:32.870Z,1007.13
2022-07-26T00:02:32.833Z,1007.01
2022-07-26T00:03:32.775Z,1006.87
2022-07-26T00:04:32.792Z,1006.70
2022-07-26T00:05:32.746Z,1006.68
2022-07-26T00:06:32.740Z,1006.61
2022-07-26T00:07:36.625Z,1006.61
2022-07-26T00:08:32.718Z,1006.57
2022-07-26T00:09:32.730Z,1006.58
2022-07-26T00:10:32.696Z,1006.61
2022-07-26T00:11:32.686Z,1006.66
2022-07-26T00:12:32.679Z,1006.77
2022-07-26T00:13:32.662Z,1006.74
2022-07-26T00:14:32.682Z,1006.77
2022-07-26T00:15:32.647Z,1006.67
2022-07-26T00:16:32.723Z,1006.68
2022-07-26T00:17:32.622Z,1006.59
2022-07-26T00:18:32.610Z,1006.55
2022-07-26T00:19:32.630Z,1006.49
2022-07-26T00:20:32.591Z,1006.46
2022-07-26T00:21:32.580Z,1006.47
2022-07-26T00:22:32.570Z,1006.42
2022-07-26T00:23:32.558Z,1006.45
2022-07-26T00:24:35.535Z,1006.49
2022-07-26T00:25:32.541Z,1006.53
2022-07-26T00:26:32.524Z,1006.51
2022-07-26T00:27:32.514Z,1006.48
2022-07-26T00:28:32.545Z,1006.57
2022-07-26T00:29:32.496Z,1006.56
2022-07-26T00:30:32.488Z,1006.62
2022-07-26T00:31:32.568Z,1006.68
2022-07-26T00:32:32.468Z,1006.68
2022-07-26T00:33:32.483Z,1006.69
2022-07-26T00:34:32.441Z,1006.72
2022-07-26T00:35:32.432Z,1006.71
2022-07-26T00:36:32.445Z,1006.71
2022-07-26T00:37:32.412Z,1006.71
2022-07-26T00:38:32.401Z,1006.63
2022-07-26T00:39:32.386Z,1006.63
2022-07-26T00:40:32.382Z,1006.61
2022-07-26T00:41:32.399Z,1006.64
2022-07-26T00:42:32.357Z,1006.56
2022-07-26T00:43:32.351Z,1006.61
2022-07-26T00:44:32.389Z,1006.58
2022-07-26T00:45:32.326Z,1006.59
2022-07-26T00:46:32.445Z,1006.60
2022-07-26T00:47:32.302Z,1006.66
2022-07-26T00:48:32.364Z,1006.70
2022-07-26T00:49:32.281Z,1006.76
2022-07-26T00:50:32.343Z,1006.81
2022-07-26T00:51:32.261Z,1006.80
2022-07-26T00:52:32.249Z,1006.77
2022-07-26T00:53:32.239Z,1006.70
2022-07-26T00:54:32.231Z,1006.71
2022-07-26T00:55:32.261Z,1006.69
2022-07-26T00:56:32.208Z,1006.65
2022-07-26T00:57:32.199Z,1006.61
2022-07-26T00:58:32.197Z,1006.68
2022-07-26T00:59:32.270Z,1006.65
2022-07-26T01:00:32.169Z,1006.68
2022-07-26T01:01:32.308Z,1006.60
2022-07-26T01:02:32.259Z,1006.55
2022-07-26T01:03:36.466Z,1006.56
2022-07-26T01:04:33.168Z,1006.57
2022-07-26T01:05:32.119Z,1006.61
2022-07-26T01:06:32.108Z,1006.65
2022-07-26T01:07:32.090Z,1006.64
2022-07-26T01:08:32.086Z,1006.66
2022-07-26T01:09:32.110Z,1006.59
2022-07-26T01:10:32.058Z,1006.59
2022-07-26T01:11:32.053Z,1006.58
2022-07-26T01:12:32.042Z,1006.56
2022-07-26T01:13:35.280Z,1006.57
2022-07-26T01:14:32.050Z,1006.51
2022-07-26T01:15:32.011Z,1006.63
2022-07-26T01:16:32.051Z,1006.68
2022-07-26T01:17:31.992Z,1006.70
2022-07-26T01:18:31.982Z,1006.73
2022-07-26T01:19:31.995Z,1006.71
2022-07-26T01:20:31.966Z,1006.74
2022-07-26T01:21:31.949Z,1006.77
2022-07-26T01:22:31.940Z,1006.79
2022-07-26T01:23:31.924Z,1006.74
2022-07-26T01:24:31.948Z,1006.71
2022-07-26T01:25:31.905Z,1006.74
2022-07-26T01:26:31.895Z,1006.82
2022-07-26T01:27:34.151Z,1006.88
2022-07-26T01:28:31.874Z,1006.83
2022-07-26T01:29:35.357Z,1006.89
2022-07-26T01:30:31.880Z,1006.93
2022-07-26T01:31:31.975Z,1006.91
2022-07-26T01:32:31.826Z,1006.89
2022-07-26T01:33:31.815Z,1006.91
2022-07-26T01:34:31.811Z,1006.88
2022-07-26T01:35:31.833Z,1006.89
2022-07-26T01:36:31.800Z,1006.85
2022-07-26T01:37:31.770Z,1006.90
2022-07-26T01:38:31.765Z,1006.86
2022-07-26T01:39:31.764Z,1006.89
2022-07-26T01:40:31.769Z,1006.93
2022-07-26T01:41:37.921Z,1006.97
2022-07-26T01:42:32.723Z,1006.93
2022-07-26T01:43:31.708Z,1006.89
2022-07-26T01:44:31.696Z,1006.87
2022-07-26T01:45:31.739Z,1006.98
2022-07-26T01:46:31.851Z,1006.97
2022-07-26T01:47:31.664Z,1006.96
2022-07-26T01:48:31.686Z,1007.01
2022-07-26T01:49:31.644Z,1006.95
2022-07-26T01:50:31.655Z,1006.98
2022-07-26T01:51:31.655Z,1006.93
2022-07-26T01:52:31.613Z,1006.89
2022-07-26T01:53:31.597Z,1006.95
2022-07-26T01:54:31.599Z,1006.87
2022-07-26T01:55:31.611Z,1006.89
2022-07-26T01:56:31.613Z,1006.81
2022-07-26T01:57:31.559Z,1006.86
2022-07-26T01:58:31.558Z,1006.86
2022-07-26T01:59:31.531Z,1006.91
2022-07-26T02:00:31.553Z,1006.89
2022-07-26T02:01:38.895Z,1006.92
2022-07-26T02:02:32.615Z,1007.01
2022-07-26T02:03:31.490Z,1006.99
2022-07-26T02:04:31.482Z,1006.99
2022-07-26T02:05:31.495Z,1006.93
2022-07-26T02:06:31.464Z,1006.97
2022-07-26T02:07:31.447Z,1006.95
2022-07-26T02:08:31.439Z,1006.97
2022-07-26T02:09:33.019Z,1007.01
2022-07-26T02:10:32.467Z,1007.01
2022-07-26T02:11:31.411Z,1006.94
2022-07-26T02:12:31.392Z,1006.99
2022-07-26T02:13:31.392Z,1007.01
2022-07-26T02:14:31.373Z,1007.04
2022-07-26T02:15:31.438Z,1007.05
2022-07-26T02:16:31.381Z,1007.09
2022-07-26T02:17:31.347Z,1007.09
2022-07-26T02:18:31.339Z,1007.04
2022-07-26T02:19:31.325Z,1007.04
2022-07-26T02:20:31.308Z,1007.05
2022-07-26T02:21:31.331Z,1007.01
2022-07-26T02:22:31.287Z,1007.00
2022-07-26T02:23:31.274Z,1007.00
2022-07-26T02:24:31.260Z,1007.06
2022-07-26T02:25:31.254Z,1007.09
2022-07-26T02:26:31.279Z,1007.10
2022-07-26T02:27:31.227Z,1007.09
2022-07-26T02:28:31.216Z,1007.07
2022-07-26T02:29:31.210Z,1007.06
2022-07-26T02:30:31.199Z,1007.01
2022-07-26T02:31:32.204Z,1006.99
2022-07-26T02:32:31.211Z,1006.97
2022-07-26T02:33:31.165Z,1007.00
2022-07-26T02:34:33.976Z,1006.99
2022-07-26T02:35:31.140Z,1007.03
2022-07-26T02:36:31.161Z,1007.03
2022-07-26T02:37:31.128Z,1007.06
2022-07-26T02:38:32.112Z,1007.02
2022-07-26T02:39:31.097Z,1006.99
2022-07-26T02:40:31.086Z,1007.02
2022-07-26T02:41:31.131Z,1006.98
2022-07-26T02:42:31.065Z,1007.02
2022-07-26T02:43:31.054Z,1006.99
2022-07-26T02:44:31.060Z,1006.94
2022-07-26T02:45:31.033Z,1006.96
2022-07-26T02:46:31.116Z,1006.93
2022-07-26T02:47:31.013Z,1006.93
2022-07-26T02:48:31.255Z,1006.93
2022-07-26T02:49:30.997Z,1006.86
2022-07-26T02:50:30.981Z,1006.90
2022-07-26T02:51:30.969Z,1006.88
2022-07-26T02:52:30.996Z,1006.92
2022-07-26T02:53:30.951Z,1006.89
2022-07-26T02:54:30.931Z,1006.87
2022-07-26T02:55:30.925Z,1006.90
2022-07-26T02:56:31.030Z,1006.90
2022-07-26T02:57:30.902Z,1006.91
2022-07-26T02:58:31.887Z,1006.90
2022-07-26T02:59:30.884Z,1006.84
2022-07-26T03:00:30.894Z,1006.83
2022-07-26T03:01:30.963Z,1006.84
2022-07-26T03:02:30.938Z,1006.82
2022-07-26T03:03:30.841Z,1006.83
2022-07-26T03:04:31.829Z,1006.85
2022-07-26T03:05:30.818Z,1006.88
2022-07-26T03:06:30.821Z,1006.85
2022-07-26T03:07:30.821Z,1006.86
2022-07-26T03:08:30.784Z,1006.90
2022-07-26T03:09:30.776Z,1006.92
2022-07-26T03:10:30.762Z,1006.90
2022-07-26T03:11:30.751Z,1006.94
2022-07-26T03:12:30.773Z,1006.94
2022-07-26T03:13:30.731Z,1006.97
2022-07-26T03:14:30.716Z,1006.95
2022-07-26T03:15:30.783Z,1006.96
2022-07-26T03:16:30.746Z,1006.91
2022-07-26T03:17:30.684Z,1006.97
2022-07-26T03:18:30.718Z,1006.91
2022-07-26T03:19:30.667Z,1006.92
2022-07-26T03:20:30.662Z,1006.93
2022-07-26T03:21:30.641Z,1006.86
2022-07-26T03:22:30.639Z,1006.90
2022-07-26T03:23:30.653Z,1006.90
2022-07-26T03:24:30.609Z,1006.90
2022-07-26T03:25:30.601Z,1006.96
2022-07-26T03:26:30.591Z,1006.89
2022-07-26T03:27:30.577Z,1006.94
2022-07-26T03:28:30.606Z,1006.95
2022-07-26T03:29:30.558Z,1006.96
2022-07-26T03:30:30.552Z,1006.96
2022-07-26T03:31:30.618Z,1007.01
2022-07-26T03:32:30.524Z,1006.96
2022-07-26T03:33:30.543Z,1006.94
2022-07-26T03:34:30.507Z,1006.95
2022-07-26T03:35:30.495Z,1006.99
2022-07-26T03:36:31.484Z,1006.90
2022-07-26T03:37:46.077Z,1006.93
2022-07-26T03:38:31.490Z,1006.95
2022-07-26T03:39:30.449Z,1006.92
2022-07-26T03:40:30.438Z,1006.94
2022-07-26T03:41:30.429Z,1006.97
2022-07-26T03:42:30.424Z,1006.97
2022-07-26T03:43:30.440Z,1006.97
2022-07-26T03:44:30.393Z,1006.94
2022-07-26T03:45:30.401Z,1006.94
2022-07-26T03:46:30.488Z,1006.95
2022-07-26T03:47:30.364Z,1006.95
2022-07-26T03:48:30.411Z,1006.96
2022-07-26T03:49:32.274Z,1006.95
2022-07-26T03:50:30.329Z,1007.03
2022-07-26T03:51:30.329Z,1007.05
2022-07-26T03:52:30.309Z,1007.07
2022-07-26T03:53:30.312Z,1007.08
2022-07-26T03:54:30.325Z,1007.03
2022-07-26T03:55:30.283Z,1007.09
2022-07-26T03:56:30.276Z,1007.09
2022-07-26T03:57:30.262Z,1007.08
2022-07-26T03:58:30.310Z,1007.08
2022-07-26T03:59:30.240Z,1007.09
2022-07-26T04:00:30.232Z,1007.10
2022-07-26T04:01:30.258Z,1007.08
2022-07-26T04:02:30.287Z,1007.03
2022-07-26T04:03:30.214Z,1007.06
2022-07-26T04:04:30.212Z,1007.11
2022-07-26T04:05:30.175Z,1007.07
2022-07-26T04:06:30.163Z,1007.09
2022-07-26T04:07:30.154Z,1007.08
2022-07-26T04:08:30.146Z,1007.13
2022-07-26T04:09:30.330Z,1007.10
2022-07-26T04:10:30.124Z,1007.09
2022-07-26T04:11:30.130Z,1007.10
2022-07-26T04:12:30.099Z,1007.11
2022-07-26T04:13:33.269Z,1007.11
2022-07-26T04:14:30.080Z,1007.14
2022-07-26T04:15:30.078Z,1007.10
2022-07-26T04:16:30.126Z,1007.11
2022-07-26T04:17:30.048Z,1007.08
2022-07-26T04:18:30.067Z,1007.07
2022-07-26T04:19:30.033Z,1007.13
2022-07-26T04:20:30.015Z,1007.07
2022-07-26T04:21:30.001Z,1007.02
2022-07-26T04:22:29.997Z,1007.06
2022-07-26T04:23:30.023Z,1007.03
2022-07-26T04:24:29.970Z,1007.11
2022-07-26T04:25:41.023Z,1007.12
2022-07-26T04:26:30.953Z,1007.09
2022-07-26T04:27:29.943Z,1007.08
2022-07-26T04:28:29.961Z,1007.11
2022-07-26T04:29:29.922Z,1007.14
2022-07-26T04:30:29.954Z,1007.10
2022-07-26T04:31:29.916Z,1007.09
2022-07-26T04:32:30.886Z,1007.12
2022-07-26T04:33:29.922Z,1007.14
2022-07-26T04:34:29.870Z,1007.06
2022-07-26T04:35:29.860Z,1007.10
2022-07-26T04:36:29.849Z,1007.15
2022-07-26T04:37:29.846Z,1007.15
2022-07-26T04:38:29.872Z,1007.14
2022-07-26T04:39:29.817Z,1007.11
2022-07-26T04:40:29.813Z,1007.16
2022-07-26T04:41:29.801Z,1007.16
2022-07-26T04:42:29.785Z,1007.10
2022-07-26T04:43:29.800Z,1007.13
2022-07-26T04:44:29.795Z,1007.13
2022-07-26T04:45:29.752Z,1007.09
2022-07-26T04:46:29.787Z,1007.13
2022-07-26T04:47:29.733Z,1007.05
2022-07-26T04:48:29.782Z,1007.03
2022-07-26T04:49:29.708Z,1007.16
2022-07-26T04:50:29.700Z,1007.12
2022-07-26T04:51:29.697Z,1007.06
2022-07-26T04:52:29.679Z,1007.05
2022-07-26T04:53:29.671Z,1007.08
2022-07-26T04:54:29.714Z,1007.10
2022-07-26T04:55:29.656Z,1007.12
2022-07-26T04:56:29.636Z,1007.11
2022-07-26T04:57:29.625Z,1007.09
2022-07-26T04:58:29.613Z,1007.11
2022-07-26T04:59:32.554Z,1007.14
2022-07-26T05:00:29.591Z,1007.17
2022-07-26T05:01:29.683Z,1007.13
2022-07-26T05:02:29.686Z,1007.17
2022-07-26T05:03:29.562Z,1007.17
2022-07-26T05:04:29.602Z,1007.15
2022-07-26T05:05:29.541Z,1007.17
2022-07-26T05:06:29.524Z,1007.17
2022-07-26T05:07:29.520Z,1007.19
2022-07-26T05:08:29.510Z,1007.12
2022-07-26T05:09:29.529Z,1007.17
2022-07-26T05:10:29.487Z,1007.17
2022-07-26T05:11:29.474Z,1007.15
2022-07-26T05:12:29.467Z,1007.21
2022-07-26T05:13:30.596Z,1007.24
2022-07-26T05:14:29.466Z,1007.24
2022-07-26T05:15:35.287Z,1007.26
2022-07-26T05:16:30.467Z,1007.21
2022-07-26T05:17:29.410Z,1007.24
2022-07-26T05:18:29.418Z,1007.27
2022-07-26T05:19:29.450Z,1007.23
2022-07-26T05:20:29.387Z,1007.28
2022-07-26T05:21:29.365Z,1007.30
2022-07-26T05:22:29.360Z,1007.30
2022-07-26T05:23:29.344Z,1007.29
2022-07-26T05:24:29.394Z,1007.27
2022-07-26T05:25:29.327Z,1007.31
2022-07-26T05:26:29.309Z,1007.31
2022-07-26T05:27:29.309Z,1007.34
2022-07-26T05:28:29.322Z,1007.34
2022-07-26T05:29:29.277Z,1007.33
2022-07-26T05:30:29.343Z,1007.36
2022-07-26T05:31:29.378Z,1007.38
2022-07-26T05:32:29.252Z,1007.43
2022-07-26T05:33:29.264Z,1007.47
2022-07-26T05:34:29.232Z,1007.47
2022-07-26T05:35:29.219Z,1007.51
2022-07-26T05:36:29.202Z,1007.49
2022-07-26T05:37:29.192Z,1007.49
2022-07-26T05:38:29.212Z,1007.51
2022-07-26T05:39:29.184Z,1007.47
2022-07-26T05:40:29.167Z,1007.48
2022-07-26T05:41:29.168Z,1007.52
2022-07-26T05:42:29.140Z,1007.54
2022-07-26T05:43:41.464Z,1007.56
2022-07-26T05:44:30.122Z,1007.50
2022-07-26T05:45:29.145Z,1007.54
2022-07-26T05:46:29.144Z,1007.54
2022-07-26T05:47:29.088Z,1007.58
2022-07-26T05:48:29.161Z,1007.59
2022-07-26T05:49:29.073Z,1007.61
2022-07-26T05:50:30.054Z,1007.61
2022-07-26T05:51:29.040Z,1007.55
2022-07-26T05:52:29.029Z,1007.61
2022-07-26T05:53:29.058Z,1007.63
2022-07-26T05:54:29.010Z,1007.62
2022-07-26T05:55:29.003Z,1007.62
2022-07-26T05:56:28.983Z,1007.60
2022-07-26T05:57:28.985Z,1007.58
2022-07-26T05:58:29.000Z,1007.64
2022-07-26T05:59:28.954Z,1007.68
2022-07-26T06:00:28.957Z,1007.66
2022-07-26T06:01:28.938Z,1007.64
2022-07-26T06:02:29.043Z,1007.66
2022-07-26T06:03:28.901Z,1007.61
2022-07-26T06:04:28.954Z,1007.62
2022-07-26T06:05:28.893Z,1007.65
2022-07-26T06:06:28.886Z,1007.64
2022-07-26T06:07:28.874Z,1007.59
2022-07-26T06:08:28.899Z,1007.60
2022-07-26T06:09:28.849Z,1007.60
2022-07-26T06:10:28.835Z,1007.66
2022-07-26T06:11:28.826Z,1007.67
2022-07-26T06:12:28.814Z,1007.69
2022-07-26T06:13:28.833Z,1007.64
2022-07-26T06:14:28.795Z,1007.58
2022-07-26T06:15:28.785Z,1007.63
2022-07-26T06:16:28.775Z,1007.59
2022-07-26T06:17:28.834Z,1007.68
2022-07-26T06:18:28.775Z,1007.60
2022-07-26T06:19:28.747Z,1007.60
2022-07-26T06:20:28.723Z,1007.63
2022-07-26T06:21:28.718Z,1007.62
2022-07-26T06:22:28.707Z,1007.68
2022-07-26T06:23:33.982Z,1007.70
2022-07-26T06:24:29.685Z,1007.73
2022-07-26T06:25:28.672Z,1007.71
2022-07-26T06:26:28.660Z,1007.72
2022-07-26T06:27:28.684Z,1007.68
2022-07-26T06:28:28.637Z,1007.74
2022-07-26T06:29:32.269Z,1007.70
2022-07-26T06:30:28.617Z,1007.77
2022-07-26T06:31:28.653Z,1007.75
2022-07-26T06:32:28.626Z,1007.72
2022-07-26T06:33:28.588Z,1007.68
2022-07-26T06:34:28.574Z,1007.75
2022-07-26T06:35:28.563Z,1007.64
2022-07-26T06:36:30.822Z,1007.70
2022-07-26T06:37:28.571Z,1007.72
2022-07-26T06:38:28.530Z,1007.74
2022-07-26T06:39:28.525Z,1007.75
2022-07-26T06:40:28.510Z,1007.76
2022-07-26T06:41:28.497Z,1007.72
2022-07-26T06:42:30.304Z,1007.72
2022-07-26T06:43:28.477Z,1007.75
2022-07-26T06:44:28.464Z,1007.73
2022-07-26T06:45:28.450Z,1007.76
2022-07-26T06:46:28.488Z,1007.78
2022-07-26T06:47:28.735Z,1007.80
2022-07-26T06:48:28.418Z,1007.80
2022-07-26T06:49:28.526Z,1007.79
2022-07-26T06:50:28.471Z,1007.78
2022-07-26T06:51:28.385Z,1007.78
2022-07-26T06:52:28.394Z,1007.81
2022-07-26T06:53:30.557Z,1007.80
2022-07-26T06:54:28.380Z,1007.82
2022-07-26T06:55:28.341Z,1007.80
2022-07-26T06:56:28.334Z,1007.83
2022-07-26T06:57:28.319Z,1007.90
2022-07-26T06:58:28.337Z,1007.91
2022-07-26T06:59:28.301Z,1007.84
2022-07-26T07:00:28.291Z,1007.92
2022-07-26T07:01:59.304Z,1007.87
2022-07-26T07:02:29.269Z,1007.84
2022-07-26T07:03:28.284Z,1007.86
2022-07-26T07:04:28.331Z,1007.90
2022-07-26T07:05:31.167Z,1007.83
2022-07-26T07:06:28.225Z,1007.92
2022-07-26T07:07:28.254Z,1007.86
2022-07-26T07:08:28.202Z,1007.86
2022-07-26T07:09:28.193Z,1007.95
2022-07-26T07:10:28.185Z,1007.88
2022-07-26T07:11:28.166Z,1007.92
2022-07-26T07:12:28.165Z,1007.95
2022-07-26T07:13:28.180Z,1007.95
2022-07-26T07:14:28.139Z,1007.96
2022-07-26T07:15:28.130Z,1007.98
2022-07-26T07:16:28.183Z,1007.97
2022-07-26T07:17:28.108Z,1008.04
2022-07-26T07:18:28.262Z,1008.05
2022-07-26T07:19:28.095Z,1008.02
2022-07-26T07:20:28.074Z,1008.00
2022-07-26T07:21:28.060Z,1008.08
2022-07-26T07:22:28.062Z,1008.03
2022-07-26T07:23:28.073Z,1008.12
2022-07-26T07:24:28.034Z,1008.07
2022-07-26T07:25:30.732Z,1008.13
2022-07-26T07:26:28.012Z,1008.14
2022-07-26T07:27:27.997Z,1008.11
2022-07-26T07:28:28.022Z,1008.07
2022-07-26T07:29:27.979Z,1008.08
2022-07-26T07:30:28.177Z,1008.05
2022-07-26T07:31:30.279Z,1008.10
2022-07-26T07:32:28.014Z,1008.00
2022-07-26T07:33:36.527Z,1008.09
2022-07-26T07:34:28.922Z,1008.04
2022-07-26T07:35:31.605Z,1008.00
2022-07-26T07:36:27.900Z,1008.01
2022-07-26T07:37:27.931Z,1008.01
2022-07-26T07:38:28.878Z,1007.93
2022-07-26T07:39:34.976Z,1007.96
2022-07-26T07:40:30.063Z,1007.98
2022-07-26T07:41:27.848Z,1008.01
2022-07-26T07:42:27.869Z,1008.05
2022-07-26T07:43:27.826Z,1008.02
2022-07-26T07:44:27.825Z,1008.03
2022-07-26T07:45:27.815Z,1008.01
2022-07-26T07:46:27.836Z,1008.08
2022-07-26T07:47:27.945Z,1008.07
2022-07-26T07:48:27.796Z,1008.03
2022-07-26T07:49:27.788Z,1008.06
2022-07-26T07:50:28.513Z,1008.01
2022-07-26T07:51:27.738Z,1008.07
2022-07-26T07:52:27.732Z,1008.09
2022-07-26T07:53:27.762Z,1008.06
2022-07-26T07:54:27.713Z,1008.02
2022-07-26T07:55:43.857Z,1008.03
2022-07-26T07:56:28.693Z,1008.07
2022-07-26T07:57:27.679Z,1008.09
2022-07-26T07:58:28.146Z,1008.04
2022-07-26T07:59:27.696Z,1008.10
2022-07-26T08:00:27.839Z,1008.01
2022-07-26T08:01:40.210Z,1008.07
2022-07-26T08:02:28.627Z,1008.02
2022-07-26T08:03:38.767Z,1008.08
2022-07-26T08:04:28.706Z,1008.04
2022-07-26T08:05:27.589Z,1008.09
2022-07-26T08:06:27.583Z,1008.02
2022-07-26T08:07:33.018Z,1008.04
2022-07-26T08:08:28.565Z,1008.05
2022-07-26T08:09:28.749Z,1008.07
2022-07-26T08:10:29.311Z,1008.04
2022-07-26T08:11:30.014Z,1008.17
2022-07-26T08:12:27.525Z,1008.13
2022-07-26T08:13:27.508Z,1008.09
2022-07-26T08:14:27.498Z,1008.05
2022-07-26T08:15:29.301Z,1008.07
2022-07-26T08:16:27.606Z,1008.03
2022-07-26T08:17:27.468Z,1008.04
2022-07-26T08:18:27.554Z,1007.99
2022-07-26T08:19:42.275Z,1008.03
2022-07-26T08:20:28.435Z,1008.03
2022-07-26T08:21:28.144Z,1008.05
2022-07-26T08:22:27.414Z,1008.06
2022-07-26T08:23:27.435Z,1007.96
2022-07-26T08:24:27.396Z,1008.03
2022-07-26T08:25:27.385Z,1008.04
2022-07-26T08:26:27.376Z,1008.06
2022-07-26T08:27:27.390Z,1008.02
2022-07-26T08:28:47.936Z,1008.03
2022-07-26T08:29:28.342Z,1008.09
2022-07-26T08:30:27.326Z,1008.13
2022-07-26T08:31:27.413Z,1008.13
2022-07-26T08:32:27.307Z,1008.17
2022-07-26T08:33:27.374Z,1008.09
2022-07-26T08:34:27.299Z,1008.09
2022-07-26T08:35:27.272Z,1008.08
2022-07-26T08:36:32.137Z,1008.09
2022-07-26T08:37:28.258Z,1008.15
2022-07-26T08:38:27.269Z,1008.09
2022-07-26T08:39:27.234Z,1008.09
2022-07-26T08:40:27.225Z,1008.10
2022-07-26T08:41:27.215Z,1008.14
2022-07-26T08:42:27.202Z,1008.12
2022-07-26T08:43:27.216Z,1008.14
2022-07-26T08:44:27.187Z,1008.13
2022-07-26T08:45:27.174Z,1008.16
2022-07-26T08:46:28.240Z,1008.15
2022-07-26T08:47:37.902Z,1008.17
2022-07-26T08:48:28.206Z,1008.11
2022-07-26T08:49:27.187Z,1008.20
2022-07-26T08:50:27.113Z,1008.19
2022-07-26T08:51:27.105Z,1008.16
2022-07-26T08:52:27.097Z,1008.18
2022-07-26T08:53:27.082Z,1008.19
2022-07-26T08:54:27.114Z,1008.16
2022-07-26T08:55:32.281Z,1008.16
2022-07-26T08:56:28.051Z,1008.17
2022-07-26T08:57:27.045Z,1008.22
2022-07-26T08:58:27.061Z,1008.20
2022-07-26T08:59:27.021Z,1008.22
2022-07-26T09:00:27.138Z,1008.24
2022-07-26T09:01:27.047Z,1008.25
2022-07-26T09:02:27.025Z,1008.27
2022-07-26T09:03:27.040Z,1008.23
2022-07-26T09:04:37.529Z,1008.28
2022-07-26T09:05:27.963Z,1008.30
2022-07-26T09:06:28.419Z,1008.36
2022-07-26T09:07:26.939Z,1008.27
2022-07-26T09:08:27.124Z,1008.33
2022-07-26T09:09:26.921Z,1008.29
2022-07-26T09:10:26.904Z,1008.27
2022-07-26T09:11:26.897Z,1008.24
2022-07-26T09:12:26.883Z,1008.34
2022-07-26T09:13:26.883Z,1008.23
2022-07-26T09:14:27.024Z,1008.24
2022-07-26T09:15:26.855Z,1008.28
2022-07-26T09:16:26.993Z,1008.26
2022-07-26T09:17:26.832Z,1008.24
2022-07-26T09:18:26.831Z,1008.30
2022-07-26T09:19:26.843Z,1008.27
2022-07-26T09:20:27.948Z,1008.35
2022-07-26T09:21:26.791Z,1008.33
2022-07-26T09:22:26.782Z,1008.28
2022-07-26T09:23:26.767Z,1008.29
2022-07-26T09:24:26.791Z,1008.31
2022-07-26T09:25:26.748Z,1008.30
2022-07-26T09:26:26.738Z,1008.36
2022-07-26T09:27:28.311Z,1008.33
2022-07-26T09:28:26.723Z,1008.33
2022-07-26T09:29:26.737Z,1008.34
2022-07-26T09:30:26.696Z,1008.36
2022-07-26T09:31:26.748Z,1008.39
2022-07-26T09:32:26.678Z,1008.39
2022-07-26T09:33:26.790Z,1008.40
2022-07-26T09:34:26.684Z,1008.36
2022-07-26T09:36:27.636Z,1008.38
2022-07-26T09:37:26.620Z,1008.39
2022-07-26T09:38:26.622Z,1008.42
2022-07-26T09:39:33.963Z,1008.40
2022-07-26T09:40:27.588Z,1008.38
2022-07-26T09:41:26.579Z,1008.37
2022-07-26T09:42:28.999Z,1008.39
2022-07-26T09:43:26.554Z,1008.40
2022-07-26T09:44:26.552Z,1008.32
2022-07-26T09:45:26.588Z,1008.39
2022-07-26T09:46:26.619Z,1008.36
2022-07-26T09:47:26.517Z,1008.34
2022-07-26T09:48:30.228Z,1008.29
2022-07-26T09:49:40.100Z,1008.35
2022-07-26T09:50:27.599Z,1008.39
2022-07-26T09:51:26.500Z,1008.32
2022-07-26T09:52:27.462Z,1008.30
2022-07-26T09:53:26.451Z,1008.31
2022-07-26T09:54:26.449Z,1008.33
2022-07-26T09:55:26.471Z,1008.33
2022-07-26T09:56:26.424Z,1008.27
2022-07-26T09:57:26.408Z,1008.31
2022-07-26T09:58:26.403Z,1008.36
2022-07-26T09:59:26.420Z,1008.31
2022-07-26T10:00:26.655Z,1008.38
2022-07-26T10:01:26.443Z,1008.33
2022-07-26T10:02:26.470Z,1008.42
2022-07-26T10:03:26.350Z,1008.44
2022-07-26T10:04:26.363Z,1008.35
2022-07-26T10:05:26.330Z,1008.38
2022-07-26T10:06:30.373Z,1008.41
2022-07-26T10:07:26.304Z,1008.38
2022-07-26T10:08:26.297Z,1008.42
2022-07-26T10:09:26.398Z,1008.38
2022-07-26T10:10:26.295Z,1008.42
2022-07-26T10:11:26.269Z,1008.41
2022-07-26T10:12:30.427Z,1008.44
2022-07-26T10:13:26.240Z,1008.40
2022-07-26T10:14:26.230Z,1008.43
2022-07-26T10:15:26.258Z,1008.42
2022-07-26T10:16:26.223Z,1008.40
2022-07-26T10:17:29.202Z,1008.38
2022-07-26T10:18:27.187Z,1008.42
2022-07-26T10:19:26.175Z,1008.45
2022-07-26T10:20:26.192Z,1008.39
2022-07-26T10:21:26.160Z,1008.46
2022-07-26T10:22:26.157Z,1008.45
2022-07-26T10:23:26.168Z,1008.50
2022-07-26T10:24:26.121Z,1008.46
2022-07-26T10:25:26.116Z,1008.46
2022-07-26T10:26:26.101Z,1008.47
2022-07-26T10:27:26.194Z,1008.41
2022-07-26T10:28:26.088Z,1008.38
2022-07-26T10:29:26.373Z,1008.44
2022-07-26T10:30:33.323Z,1008.41
2022-07-26T10:31:27.118Z,1008.42
2022-07-26T10:32:26.072Z,1008.40
2022-07-26T10:33:26.024Z,1008.46
2022-07-26T10:34:26.016Z,1008.42
2022-07-26T10:35:26.006Z,1008.42
2022-07-26T10:36:26.039Z,1008.43
2022-07-26T10:37:25.982Z,1008.38
2022-07-26T10:38:25.977Z,1008.40
2022-07-26T10:39:25.962Z,1008.38
2022-07-26T10:40:25.956Z,1008.44
2022-07-26T10:41:25.968Z,1008.40
2022-07-26T10:42:25.943Z,1008.40
2022-07-26T10:43:42.479Z,1008.40
2022-07-26T10:44:26.915Z,1008.38
2022-07-26T10:45:25.946Z,1008.41
2022-07-26T10:46:25.924Z,1008.42
2022-07-26T10:47:25.882Z,1008.42
2022-07-26T10:48:25.865Z,1008.41
2022-07-26T10:49:25.860Z,1008.45
2022-07-26T10:50:25.852Z,1008.43
2022-07-26T10:51:25.875Z,1008.38
2022-07-26T10:52:25.828Z,1008.47
2022-07-26T10:53:25.822Z,1008.44
2022-07-26T10:54:25.804Z,1008.43
2022-07-26T10:55:25.793Z,1008.50
2022-07-26T10:56:28.714Z,1008.47
2022-07-26T10:57:26.771Z,1008.43
2022-07-26T10:58:25.764Z,1008.41
2022-07-26T10:59:46.057Z,1008.39
2022-07-26T11:00:26.767Z,1008.44
2022-07-26T11:01:25.783Z,1008.40
2022-07-26T11:02:25.764Z,1008.46
2022-07-26T11:03:25.712Z,1008.45
2022-07-26T11:04:25.704Z,1008.43
2022-07-26T11:05:25.746Z,1008.42
2022-07-26T11:06:25.679Z,1008.41
2022-07-26T11:07:25.675Z,1008.40
2022-07-26T11:08:25.665Z,1008.38
2022-07-26T11:09:25.649Z,1008.39
2022-07-26T11:10:25.643Z,1008.41
2022-07-26T11:11:25.711Z,1008.39
2022-07-26T11:12:25.643Z,1008.42
2022-07-26T11:13:25.651Z,1008.28
2022-07-26T11:14:25.609Z,1008.41
2022-07-26T11:15:25.591Z,1008.39
2022-07-26T11:16:25.669Z,1008.37
2022-07-26T11:17:25.585Z,1008.37
2022-07-26T11:18:25.589Z,1008.38
2022-07-26T11:19:25.549Z,1008.37
2022-07-26T11:20:29.561Z,1008.36
2022-07-26T11:21:25.532Z,1008.33
2022-07-26T11:22:25.524Z,1008.36
2022-07-26T11:23:25.840Z,1008.26
2022-07-26T11:24:25.498Z,1008.30
2022-07-26T11:25:25.490Z,1008.22
2022-07-26T11:26:25.479Z,1008.24
2022-07-26T11:27:25.470Z,1008.30
2022-07-26T11:28:25.656Z,1008.25
2022-07-26T11:29:25.451Z,1008.40
2022-07-26T11:30:26.438Z,1008.33
2022-07-26T11:31:28.934Z,1008.36
2022-07-26T11:32:26.588Z,1008.41
2022-07-26T11:33:25.403Z,1008.35
2022-07-26T11:34:25.426Z,1008.45
2022-07-26T11:35:25.385Z,1008.42
2022-07-26T11:36:25.375Z,1008.38
2022-07-26T11:37:25.368Z,1008.40
2022-07-26T11:38:25.355Z,1008.43
2022-07-26T11:39:25.370Z,1008.40
2022-07-26T11:40:25.332Z,1008.42
2022-07-26T11:41:34.563Z,1008.48
2022-07-26T11:42:26.316Z,1008.47
2022-07-26T11:43:25.306Z,1008.51
2022-07-26T11:44:25.477Z,1008.43
2022-07-26T11:45:25.290Z,1008.43
2022-07-26T11:46:25.320Z,1008.49
2022-07-26T11:47:26.607Z,1008.50
2022-07-26T11:48:25.248Z,1008.46
2022-07-26T11:49:48.994Z,1008.48
2022-07-26T11:50:26.232Z,1008.47
2022-07-26T11:51:25.217Z,1008.52
2022-07-26T11:52:25.865Z,1008.42
2022-07-26T11:53:25.205Z,1008.50
2022-07-26T11:54:25.226Z,1008.50
2022-07-26T11:55:25.179Z,1008.54
2022-07-26T11:56:25.172Z,1008.51
2022-07-26T11:57:25.159Z,1008.49
2022-07-26T11:58:25.145Z,1008.45
2022-07-26T11:59:28.359Z,1008.41
2022-07-26T12:00:25.126Z,1008.48
2022-07-26T12:01:25.116Z,1008.39
2022-07-26T12:02:25.103Z,1008.45
2022-07-26T12:03:25.092Z,1008.43
2022-07-26T12:04:25.259Z,1008.46
2022-07-26T12:05:25.179Z,1008.43
2022-07-26T12:06:25.064Z,1008.44